Aylmer, Ontario

2:13 AM EDT on October 26, 2014 (GMT -0400)
Bailey Avenue | Change Station
CLOSE
Current Station
Personal Weather Station
Location: St. Thomas, ONTARIO
Elevation: 796 ft
Nearby Weather Stations

Elev 796 ft 42.76 °N, 81.15 °W | Updated 9 seconds ago

Clear
Clear
46.8 °F
Feels Like 43 °F
N
8.0
Wind Variable Wind from WSW
Gusts 8.0 mph

Today
High -- | Low -- °F
--% Chance of Precip.
Yesterday
High -- | Low -- °F
Precip. -- in
7:50 AM 6:24 PM
Waxing Crescent, 6% visible
Pressure 29.74 in
Visibility 15.0 miles
Clouds Clear
Windchill 43 °F
Dew Point 39 °F
Humidity 73%
Rainfall 0.00 in
Snow Depth Not available.
UV 0 out of 12
Pollen Not available.
Air Quality Not available.
Flu Activity Not available.
METAR CYXU 260600Z 28008KT 15SM SKC 08/02 A2973 RMK SLP070

More Conditions Fewer Conditions

Pressure 29.74 in
Visibility 15.0 miles
Clouds Clear
Windchill 43 °F
Dew Point 39 °F
Humidity 73%
Rainfall 0.00 in
Snow Depth Not available.
UV 0 out of 12
Pollen Not available.
Air Quality Not available.
Flu Activity Not available.
METAR CYXU 260600Z 28008KT 15SM SKC 08/02 A2973 RMK SLP070

More Conditions Fewer Conditions

10-Day Weather Forecast

Almanac

Astronomy

Oct. 26, 2014 Rise Set
Actual Time 7:50 AM EDT 6:24 PM EDT
Civil Twilight 7:21 AM EDT 6:53 PM EDT
Nautical Twilight 6:48 AM EDT 7:26 PM EDT
Astronomical Twilight 6:15 AM EDT 7:59 PM EDT
Moon 10:29 AM EDT 8:32 PM EDT
Length of Visible Light 11h 32m
Length of Day
10h 34m
Tomorrow will be 2m 40s shorter.
Waxing Crescent, 6% of the Moon is Illuminated
Today
Waxing Crescent
Oct 30
First Quarter
Nov 6
Full
Nov 14
Last Quarter
Nov 22
New

Yesterday's Extremes

Country Highs Country Lows

Community

WunderPhotos

Upload Photos

1,765,113 photos uploaded!

Nearby

Snow Depth

Not available.

Earthquake Activity

City Distance Mag. Time & Date
No recent earthquake activity has been reported nearby.
Minimum magnitude displayed is 2.5.

Coastal Water Temperatures

Place Temperature
No Stations Reporting

Nearby Weather Stations